Fiesta Key, Florida
Current Conditions -  °F | °C
As of 8:53 AM on Friday 28 Nov 2014 (Local Time) from KMTH Reporting Station
Clear Clear  
Wind Chill: 60°   Ceiling: Unl
Heat Index: 60°   Visibility: 10mi
Dew Point: 52°   Wind: 14mph
Humidity: 75%   Direction: 10°N
Pressure: 30.23"   Gusts: 24mph
Location:  24.8241°N, 80.818°W
Report Text: KMTH 281353Z AUTO 01012G21KT 10SM CLR 16/11 A3023 RMK AO2 SLP237 T01560111
Loading
Personal Weather Stations






























Interactive Weather Map New forecast layout! Learn more

10-Day Weather Forecast

Advertisements
Track Severe Weather on mobile